Time;durP1;ratioP1;P1;durP2;ratioP2;P2;SDS_P1;SDS_P2;PMS_P1;PMS_P2;Temp;Humidity;BMP_temperature;BMP_pressure;BME280_temperature;BME280_humidity;BME280_pressure;Samples;Min_cycle;Max_cycle;Signal;HPM_P1;HPM_P2
2024/01/15 00:04:24;;;;;;;10.90;8.40;;;;;;;3.07;100.00;97975.90;104370;1271;59497;-68
2024/01/15 00:06:51;;;;;;;9.60;8.20;;;;;;;3.14;100.00;97974.27;104358;1257;73324;-66
2024/01/15 00:09:24;;;;;;;9.80;8.60;;;;;;;3.17;100.00;97979.34;104437;1252;70433;-67
2024/01/15 00:12:35;;;;;;;9.70;8.50;;;;;;;3.13;100.00;97983.30;104411;1252;73340;-67
2024/01/15 00:15:09;;;;;;;10.40;8.50;;;;;;;3.00;100.00;97981.56;104294;1256;59766;-69
2024/01/15 00:21:29;;;;;;;9.70;8.20;;;;;;;2.96;100.00;97987.61;104532;1267;73471;-66
2024/01/15 00:24:40;;;;;;;11.00;9.00;;;;;;;2.71;100.00;97990.08;104456;1256;70204;-65
2024/01/15 00:27:12;;;;;;;10.90;8.40;;;;;;;2.70;100.00;97986.00;104662;1255;73427;-65
2024/01/15 00:29:46;;;;;;;9.20;8.20;;;;;;;2.70;100.00;97988.92;105003;1253;61657;-65
2024/01/15 00:36:07;;;;;;;11.50;9.10;;;;;;;2.66;100.00;97978.19;104965;1253;73634;-66
2024/01/15 00:43:39;;;;;;;9.50;8.30;;;;;;;2.51;100.00;97971.27;104492;1255;72659;-70
2024/01/15 00:46:13;;;;;;;10.50;8.40;;;;;;;2.48;100.00;97971.73;104503;1254;60723;-66
2024/01/15 00:49:24;;;;;;;9.80;8.40;;;;;;;2.66;100.00;97976.06;104533;1269;60476;-65
2024/01/15 00:51:57;;;;;;;10.00;8.50;;;;;;;2.59;100.00;97975.51;104471;1257;73684;-65
2024/01/15 00:55:11;;;;;;;9.70;8.00;;;;;;;2.55;100.00;97977.17;105724;1253;68863;-65
2024/01/15 00:58:22;;;;;;;11.10;8.60;;;;;;;6.19;100.00;97969.51;104452;1267;72323;-67
2024/01/15 01:01:33;;;;;;;9.60;8.30;;;;;;;6.01;100.00;97964.15;104407;1259;61007;-65
2024/01/15 01:04:06;;;;;;;11.70;8.70;;;;;;;5.93;100.00;97961.25;104640;1253;60637;-66
2024/01/15 01:07:23;;;;;;;10.40;8.40;;;;;;;5.94;100.00;97960.00;104542;1257;72793;-66
2024/01/15 01:09:56;;;;;;;10.80;8.10;;;;;;;5.96;100.00;97960.94;104749;1256;70167;-66
2024/01/15 01:12:29;;;;;;;13.70;10.10;;;;;;;5.78;100.00;97963.23;104808;1256;71813;-65
2024/01/15 01:15:40;;;;;;;11.30;9.00;;;;;;;5.66;100.00;97965.36;104509;1255;60612;-66
2024/01/15 01:18:13;;;;;;;13.40;9.90;;;;;;;5.64;100.00;97966.14;104718;1255;60432;-63
2024/01/15 01:20:48;;;;;;;9.80;8.10;;;;;;;5.67;100.00;97965.48;104303;1256;74442;-66
2024/01/15 01:27:29;;;;;;;10.20;8.10;;;;;;;5.74;100.00;97961.85;104786;1259;72557;-67
2024/01/15 01:29:56;;;;;;;9.70;8.70;;;;;;;5.77;100.00;97961.34;104693;1254;60866;-68
2024/01/15 01:32:30;;;;;;;10.40;8.20;;;;;;;5.76;100.00;97958.77;104405;1254;60736;-67
2024/01/15 01:35:41;;;;;;;9.80;8.50;;;;;;;5.67;99.83;97954.02;104453;1268;74909;-67
2024/01/15 01:38:52;;;;;;;9.20;7.30;;;;;;;5.55;99.57;97952.88;104410;1263;69252;-66
2024/01/15 01:45:37;;;;;;;10.20;8.20;;;;;;;5.52;98.88;97949.58;104805;1268;61499;-67
2024/01/15 01:48:47;;;;;;;11.00;7.80;;;;;;;5.61;97.07;97947.00;104783;1253;60576;-67
2024/01/15 01:51:55;;;;;;;9.40;7.50;;;;;;;5.59;95.40;97946.77;104707;1253;73358;-67
2024/01/15 01:54:29;;;;;;;10.50;8.60;;;;;;;5.48;94.94;97950.59;104531;1269;69409;-67
2024/01/15 01:56:56;;;;;;;9.90;7.70;;;;;;;5.44;94.50;97951.33;104495;1254;71632;-66
2024/01/15 02:04:15;;;;;;;9.30;7.50;;;;;;;5.33;95.29;97953.75;104304;1254;60464;-66
2024/01/15 02:07:29;;;;;;;8.60;7.70;;;;;;;5.28;95.32;97955.07;104438;1253;74406;-66
2024/01/15 02:10:40;;;;;;;8.80;7.20;;;;;;;5.22;95.54;97954.32;104381;1256;69863;-66
2024/01/15 02:25:42;;;;;;;9.80;7.40;;;;;;;4.91;99.96;97954.03;104299;1254;75212;-65
2024/01/15 02:28:54;;;;;;;10.10;7.90;;;;;;;5.00;99.96;97958.83;104826;1263;69567;-68
2024/01/15 02:32:05;;;;;;;9.50;8.30;;;;;;;4.82;100.00;97961.92;104951;1263;72352;-67
2024/01/15 02:34:38;;;;;;;11.70;8.90;;;;;;;5.00;100.00;97965.41;104514;1271;60129;-64
2024/01/15 02:37:50;;;;;;;11.90;8.50;;;;;;;5.04;100.00;97969.04;104680;1258;62049;-65
2024/01/15 02:40:23;;;;;;;10.80;8.10;;;;;;;5.09;100.00;97969.52;104694;1253;73394;-65
2024/01/15 02:46:44;;;;;;;9.60;7.10;;;;;;;4.96;100.00;97966.45;104893;1255;73483;-65
2024/01/15 02:49:55;;;;;;;8.00;7.10;;;;;;;4.91;100.00;97961.70;104760;1258;60565;-65
2024/01/15 02:52:29;;;;;;;9.10;7.50;;;;;;;4.82;99.99;97952.02;105207;1256;60756;-65
2024/01/15 02:54:56;;;;;;;10.80;7.90;;;;;;;4.78;99.96;97948.72;104877;1259;73378;-65
2024/01/15 02:58:07;;;;;;;8.50;7.30;;;;;;;4.79;99.91;97946.25;104460;1258;70076;-65
2024/01/15 03:00:40;;;;;;;9.60;7.70;;;;;;;4.86;99.10;97947.67;104460;1256;73036;-64
2024/01/15 03:03:55;;;;;;;8.70;7.30;;;;;;;4.83;98.49;97942.77;104825;1265;62345;-65
2024/01/15 03:07:06;;;;;;;9.70;7.20;;;;;;;4.62;98.23;97945.09;105027;1255;60589;-65
2024/01/15 03:09:58;;;;;;;9.40;7.70;;;;;;;4.53;99.68;97946.92;104830;1256;73664;-65
2024/01/15 03:13:08;;;;;;;8.90;7.20;;;;;;;4.54;99.39;97945.13;104529;1257;69454;-65
2024/01/15 03:16:07;;;;;;;11.70;7.90;;;;;;;4.45;99.85;97950.25;104345;1257;72524;-65
2024/01/15 03:18:39;;;;;;;10.80;8.20;;;;;;;4.49;99.38;97947.45;104431;1254;60948;-65
2024/01/15 03:21:12;;;;;;;12.00;8.80;;;;;;;4.47;100.00;97946.48;104336;1275;59799;-65
2024/01/15 03:24:24;;;;;;;10.00;8.70;;;;;;;4.52;99.52;97941.23;104983;1254;74827;-66
2024/01/15 03:26:59;;;;;;;11.90;8.50;;;;;;;4.60;97.08;97944.48;105072;1261;69115;-65
2024/01/15 03:30:04;;;;;;;13.30;9.30;;;;;;;4.71;95.74;97947.30;104482;1254;72547;-65
2024/01/15 03:32:38;;;;;;;10.80;8.70;;;;;;;4.76;95.40;97952.83;104770;1269;61134;-66
2024/01/15 03:35:11;;;;;;;9.10;7.60;;;;;;;4.73;94.52;97957.14;104966;1253;60553;-65
2024/01/15 03:42:42;;;;;;;9.80;8.30;;;;;;;4.58;92.82;97967.17;104947;1251;70676;-66
2024/01/15 03:45:14;;;;;;;10.50;7.80;;;;;;;4.42;92.74;97963.70;104766;1256;73109;-67
2024/01/15 03:47:44;;;;;;;8.70;7.70;;;;;;;4.34;93.95;97961.64;104533;1256;61702;-66
2024/01/15 03:50:56;;;;;;;10.30;7.50;;;;;;;4.37;93.72;97959.44;104393;1254;60451;-66
2024/01/15 04:01:19;;;;;;;10.40;7.90;;;;;;;4.15;93.39;97957.81;104547;1255;70559;-67
2024/01/15 04:04:30;;;;;;;11.20;7.60;;;;;;;4.12;93.64;97963.64;104796;1259;60772;-66
2024/01/15 04:07:41;;;;;;;12.60;8.40;;;;;;;3.97;94.28;97960.29;104367;1265;60588;-66
2024/01/15 04:10:09;;;;;;;14.50;7.90;;;;;;;3.96;95.51;97960.19;104524;1255;73585;-67
2024/01/15 04:13:23;;;;;;;8.40;7.00;;;;;;;3.96;94.92;97959.81;104739;1255;69873;-67
2024/01/15 04:16:34;;;;;;;11.00;8.30;;;;;;;3.92;95.53;97959.81;104633;1257;73123;-66
2024/01/15 04:19:44;;;;;;;8.90;7.30;;;;;;;3.86;94.21;97966.48;104784;1269;61169;-67
2024/01/15 04:30:43;;;;;;;10.10;7.60;;;;;;;3.99;93.92;97968.91;104325;1264;69861;-65
2024/01/15 04:33:22;;;;;;;11.50;8.50;;;;;;;3.98;93.42;97972.91;105148;1254;72392;-67
2024/01/15 04:36:33;;;;;;;11.40;8.00;;;;;;;4.00;93.44;97980.95;104394;1256;61580;-66
2024/01/15 04:39:45;;;;;;;11.90;7.50;;;;;;;3.93;92.98;97979.19;104400;1265;59660;-66
2024/01/15 04:42:24;;;;;;;9.40;7.70;;;;;;;4.07;92.82;97989.88;104402;1256;73544;-66
2024/01/15 04:44:55;;;;;;;14.30;8.50;;;;;;;4.06;92.33;97992.00;104902;1256;69161;-64
2024/01/15 04:47:28;;;;;;;13.40;8.20;;;;;;;4.07;92.33;97988.83;104307;1257;72837;-66
2024/01/15 04:50:42;;;;;;;11.20;8.20;;;;;;;4.07;92.62;97980.48;104327;1263;60960;-65
2024/01/15 04:53:53;;;;;;;8.80;7.20;;;;;;;3.96;90.92;97984.77;104599;1256;60561;-68
2024/01/15 04:56:48;;;;;;;8.90;6.60;;;;;;;4.03;91.33;97985.34;104803;1256;74193;-66
2024/01/15 04:59:21;;;;;;;10.20;7.40;;;;;;;4.04;91.46;97983.90;104485;1260;70216;-64
2024/01/15 05:02:35;;;;;;;8.50;7.30;;;;;;;4.02;90.76;97986.27;104490;1275;72947;-66
2024/01/15 05:05:46;;;;;;;9.40;7.40;;;;;;;3.99;90.65;97986.55;104443;1254;61727;-64
2024/01/15 05:08:47;;;;;;;9.50;7.00;;;;;;;4.01;89.07;97989.95;104515;1253;60523;-65
2024/01/15 05:11:20;;;;;;;8.30;7.10;;;;;;;4.04;87.37;97986.17;104408;1254;74318;-68
2024/01/15 05:13:55;;;;;;;10.10;7.30;;;;;;;3.98;87.70;97981.95;104661;1256;70313;-65
2024/01/15 05:17:06;;;;;;;7.60;6.70;;;;;;;3.99;88.83;97983.95;104342;1255;73304;-65
2024/01/15 05:19:43;;;;;;;7.50;6.70;;;;;;;4.01;87.12;97977.66;104347;1273;61510;-66
2024/01/15 05:22:47;;;;;;;8.80;6.50;;;;;;;3.97;85.90;97976.09;104422;1254;60473;-67
2024/01/15 05:25:21;;;;;;;7.50;6.70;;;;;;;3.99;87.47;97980.67;104647;1255;73625;-66
2024/01/15 05:28:32;;;;;;;9.30;7.20;;;;;;;4.01;86.10;97978.52;104448;1256;69988;-63
2024/01/15 05:31:20;;;;;;;8.10;6.40;;;;;;;4.03;86.24;97985.16;104404;1270;73270;-65
2024/01/15 05:34:31;;;;;;;8.40;6.50;;;;;;;3.95;86.13;97989.86;104557;1266;61058;-64
2024/01/15 05:37:43;;;;;;;9.30;7.60;;;;;;;3.93;85.58;97988.92;104588;1254;60549;-66
2024/01/15 05:43:58;;;;;;;11.70;7.80;;;;;;;3.92;85.09;97990.00;104689;1256;69797;-65
2024/01/15 05:50:43;;;;;;;10.30;7.30;;;;;;;3.83;84.93;97994.70;104487;1254;60860;-64
2024/01/15 05:53:54;;;;;;;8.40;6.40;;;;;;;3.87;84.72;97986.55;104348;1258;60278;-65
2024/01/15 05:57:04;;;;;;;9.00;6.90;;;;;;;3.91;84.89;97990.20;104593;1263;74268;-65
2024/01/15 05:59:37;;;;;;;10.60;7.30;;;;;;;3.96;84.64;97985.32;104568;1253;69550;-65
2024/01/15 06:02:12;;;;;;;8.10;6.80;;;;;;;3.96;83.80;97987.05;104517;1258;72374;-64
2024/01/15 06:04:57;;;;;;;9.80;7.10;;;;;;;3.95;83.68;97991.59;104436;1260;60734;-65
2024/01/15 06:08:08;;;;;;;10.00;6.70;;;;;;;4.02;83.36;97991.13;104503;1259;60504;-66
2024/01/15 06:11:06;;;;;;;9.40;7.30;;;;;;;4.13;81.67;97997.25;104597;1257;74124;-72
2024/01/15 06:13:39;;;;;;;11.00;7.20;;;;;;;4.06;82.96;98003.41;104628;1258;68714;-72
2024/01/15 06:16:16;;;;;;;10.40;7.50;;;;;;;4.13;83.47;97999.86;104412;1257;73398;-60
2024/01/15 06:19:11;;;;;;;9.90;7.70;;;;;;;4.18;82.00;98003.44;104413;1259;59929;-60
2024/01/15 06:21:38;;;;;;;9.20;7.60;;;;;;;4.18;82.48;97997.20;104893;1253;60534;-61
2024/01/15 06:24:05;;;;;;;10.70;8.40;;;;;;;4.19;81.37;97995.43;104371;1270;73691;-61
2024/01/15 06:27:09;;;;;;;11.80;8.30;;;;;;;4.17;81.91;97999.48;104551;1266;69141;-62
2024/01/15 06:29:45;;;;;;;10.00;8.30;;;;;;;4.12;95.96;98007.18;104282;1270;72927;-61
2024/01/15 06:33:00;;;;;;;10.10;7.00;;;;;;;4.13;93.72;98006.42;104594;1258;60897;-61
2024/01/15 06:36:11;;;;;;;8.90;7.40;;;;;;;4.18;88.45;98001.71;104606;1272;60094;-61
2024/01/15 06:39:13;;;;;;;9.60;7.20;;;;;;;4.16;86.65;98009.23;104616;1256;74018;-60
2024/01/15 06:41:46;;;;;;;13.00;9.60;;;;;;;4.04;100.00;98006.64;104218;1261;68902;-62
2024/01/15 06:44:57;;;;;;;15.20;9.60;;;;;;;4.16;100.00;98012.20;104806;1271;72327;-61
2024/01/15 06:47:35;;;;;;;10.40;7.50;;;;;;;4.10;100.00;98012.11;104451;1266;61206;-60
2024/01/15 06:50:02;;;;;;;9.60;7.00;;;;;;;4.71;100.00;98003.91;104413;1253;60460;-66
2024/01/15 06:57:33;;;;;;;10.20;8.50;;;;;;;5.27;100.00;98006.35;104630;1261;69970;-61
2024/01/15 07:00:08;;;;;;;13.70;7.40;;;;;;;3.48;100.00;98005.43;104432;1260;73647;-61
2024/01/15 07:03:16;;;;;;;9.50;7.70;;;;;;;3.22;100.00;97998.17;104615;1273;62016;-62
2024/01/15 07:06:27;;;;;;;10.40;7.90;;;;;;;2.96;100.00;97997.80;104582;1265;60477;-61
2024/01/15 07:09:44;;;;;;;8.80;7.00;;;;;;;2.22;100.00;97985.98;104768;1269;73651;-61
2024/01/15 07:12:17;;;;;;;13.10;8.10;;;;;;;2.52;100.00;97989.59;104767;1254;69374;-61
2024/01/15 07:19:16;;;;;;;12.50;9.30;;;;;;;2.61;100.00;97982.14;104411;1258;60910;-61
2024/01/15 07:22:28;;;;;;;17.10;11.50;;;;;;;2.54;100.00;97970.95;104690;1254;60498;-62
2024/01/15 07:25:39;;;;;;;18.30;12.80;;;;;;;3.56;100.00;97971.89;104587;1274;73561;-66
2024/01/15 07:32:38;;;;;;;46.50;26.40;;;;;;;3.19;100.00;97976.83;104405;1255;73143;-66
2024/01/15 07:35:11;;;;;;;33.90;20.30;;;;;;;3.31;100.00;97972.19;104496;1266;60432;-61
2024/01/15 07:38:22;;;;;;;21.30;14.10;;;;;;;3.38;100.00;97961.89;104409;1258;60552;-61
2024/01/15 07:40:55;;;;;;;17.00;11.90;;;;;;;3.41;100.00;97941.84;104396;1256;74119;-61
2024/01/15 07:47:38;;;;;;;11.30;8.80;;;;;;;3.51;100.00;97958.23;104571;1254;71855;-61
2024/01/15 07:52:39;;;;;;;15.10;10.60;;;;;;;2.76;100.00;97961.48;100992;1292;605540;-60
2024/01/15 07:55:51;;;;;;;16.70;10.00;;;;;;;3.34;100.00;97958.92;103752;1282;60733;-60
2024/01/15 07:59:04;;;;;;;19.10;11.20;;;;;;;3.38;100.00;97959.80;103845;1269;63490;-60
2024/01/15 08:02:16;;;;;;;15.00;9.80;;;;;;;3.60;100.00;97955.28;103762;1271;71204;-60
2024/01/15 08:04:50;;;;;;;13.80;10.00;;;;;;;4.92;97.18;97954.52;99908;1270;5396021;-60
2024/01/15 08:08:03;;;;;;;12.60;9.40;;;;;;;4.77;93.92;97962.48;104220;1265;72431;-61
2024/01/15 08:11:16;;;;;;;14.20;9.80;;;;;;;4.54;91.17;97959.84;103409;1271;61825;-64
2024/01/15 08:14:28;;;;;;;12.90;9.40;;;;;;;3.90;99.97;97957.98;103795;1269;59700;-62
2024/01/15 08:17:40;;;;;;;12.60;9.90;;;;;;;4.18;99.36;97961.98;103774;1270;72430;-61
2024/01/15 08:20:54;;;;;;;10.50;7.80;;;;;;;4.37;91.36;97962.36;103715;1271;69346;-61
2024/01/15 08:24:06;;;;;;;7.70;6.60;;;;;;;3.95;97.24;97961.08;103821;1270;72934;-60
2024/01/15 08:27:21;;;;;;;8.40;7.30;;;;;;;3.95;97.69;97954.81;103888;1269;60600;-60
2024/01/15 08:30:37;;;;;;;7.70;7.00;;;;;;;3.97;98.32;97953.88;103726;1270;59761;-61
2024/01/15 08:33:17;;;;;;;8.60;7.10;;;;;;;4.08;97.08;97957.23;103644;1267;72908;-60
2024/01/15 08:36:35;;;;;;;8.80;7.00;;;;;;;4.13;93.78;97964.46;103666;1284;69288;-60
2024/01/15 08:39:47;;;;;;;8.50;6.60;;;;;;;4.10;93.96;97961.45;103582;1271;73191;-60
2024/01/15 08:43:02;;;;;;;9.20;6.80;;;;;;;4.04;93.82;97951.17;103661;1270;60784;-60
2024/01/15 08:46:18;;;;;;;7.30;6.20;;;;;;;3.97;93.40;97953.02;104409;1269;59806;-61
2024/01/15 08:53:55;;;;;;;8.30;6.70;;;;;;;3.97;90.66;97952.36;103826;1277;70636;-59
2024/01/15 09:01:29;;;;;;;8.50;7.30;;;;;;;3.89;93.44;97940.18;104114;1267;61898;-59
2024/01/15 09:04:01;;;;;;;8.30;6.70;;;;;;;4.04;89.90;97939.73;103966;1266;59917;-59
2024/01/15 09:07:14;;;;;;;9.70;7.90;;;;;;;4.08;90.88;97936.22;103703;1270;73346;-61
2024/01/15 09:09:42;;;;;;;8.50;6.60;;;;;;;4.06;90.35;97942.39;104103;1277;70155;-58
2024/01/15 09:12:15;;;;;;;;;;;;;;;4.02;88.58;97934.44;103877;1264;71535;-61
2024/01/15 09:14:43;;;;;;;10.30;7.30;;;;;;;4.02;87.65;97933.05;103988;1261;60885;-59
2024/01/15 09:17:11;;;;;;;;;;;;;;;4.04;88.83;97926.02;103886;1275;59769;-61
2024/01/15 09:19:39;;;;;;;8.30;7.10;;;;;;;4.07;87.79;97920.66;104074;1274;73116;-60
2024/01/15 09:22:07;;;;;;;9.30;6.70;;;;;;;4.11;87.90;97915.98;104130;1281;69086;-60
2024/01/15 09:24:35;;;;;;;10.70;8.20;;;;;;;4.17;87.76;97916.08;104670;1253;71963;-61
2024/01/15 09:27:04;;;;;;;7.80;6.80;;;;;;;4.25;86.41;97910.68;104436;1255;60593;-61
2024/01/15 09:29:32;;;;;;;7.40;6.50;;;;;;;4.30;85.68;97909.60;104325;1258;59829;-60
2024/01/15 09:32:02;;;;;;;8.70;7.00;;;;;;;4.30;86.98;97905.27;105531;1254;75805;-60
2024/01/15 09:34:30;;;;;;;8.90;7.00;;;;;;;4.34;86.36;97897.99;104360;1258;69177;-59
2024/01/15 09:36:59;;;;;;;9.40;7.50;;;;;;;4.33;83.50;97898.55;104548;1255;72545;-60
2024/01/15 09:39:28;;;;;;;10.90;8.00;;;;;;;4.28;81.15;97898.75;104550;1260;59749;-60
2024/01/15 09:41:56;;;;;;;11.90;8.50;;;;;;;4.26;80.14;97899.92;104510;1257;59810;-60
2024/01/15 09:44:23;;;;;;;10.80;7.40;;;;;;;4.28;81.44;97897.73;104894;1254;72848;-60
2024/01/15 09:46:51;;;;;;;;;;;;;;;4.39;80.81;97898.45;104448;1269;69460;-59
2024/01/15 09:49:20;;;;;;;9.20;7.10;;;;;;;4.45;78.32;97889.33;104308;1267;72555;-60
2024/01/15 09:51:48;;;;;;;8.50;6.20;;;;;;;4.48;78.70;97885.89;105014;1254;59781;-58
2024/01/15 09:54:29;;;;;;;7.10;5.80;;;;;;;4.53;78.11;97885.33;104300;1275;59967;-60
2024/01/15 09:56:58;;;;;;;6.70;5.40;;;;;;;4.55;78.16;97892.52;104416;1269;71974;-59
2024/01/15 09:59:25;;;;;;;6.20;5.30;;;;;;;4.51;76.34;97893.56;105210;1253;69212;-60
2024/01/15 10:01:53;;;;;;;;;;;;;;;4.39;78.85;97892.91;104736;1271;72658;-62
2024/01/15 10:04:21;;;;;;;6.70;5.80;;;;;;;4.40;79.06;97888.88;104850;1254;60641;-62
2024/01/15 10:06:51;;;;;;;6.70;5.00;;;;;;;4.44;78.07;97879.83;104603;1273;63260;-62
2024/01/15 10:09:20;;;;;;;6.30;5.20;;;;;;;4.44;75.54;97882.06;104352;1257;73876;-62
2024/01/15 10:11:48;;;;;;;6.10;5.50;;;;;;;4.50;75.45;97874.36;104461;1266;70171;-61
2024/01/15 10:14:16;;;;;;;6.70;5.50;;;;;;;4.54;77.52;97873.65;104639;1259;72575;-62
2024/01/15 10:16:44;;;;;;;;;;;;;;;4.51;76.02;97874.28;104575;1264;60270;-60
2024/01/15 10:19:16;;;;;;;;;;;;;;;4.49;75.08;97866.77;104985;1257;59704;-63
2024/01/15 10:21:44;;;;;;;6.60;5.90;;;;;;;4.45;73.85;97861.06;104765;1257;73365;-64
2024/01/15 10:24:12;;;;;;;6.10;4.90;;;;;;;4.43;75.11;97857.13;104368;1276;69660;-62
2024/01/15 10:26:40;;;;;;;6.40;5.70;;;;;;;4.42;75.40;97853.06;104555;1259;72484;-63
2024/01/15 10:29:10;;;;;;;6.90;5.80;;;;;;;4.42;76.23;97850.96;104314;1261;60919;-66
2024/01/15 10:31:38;;;;;;;5.80;4.90;;;;;;;4.33;74.38;97848.59;105386;1253;59835;-60
2024/01/15 10:34:12;;;;;;;7.30;5.90;;;;;;;4.23;77.86;97847.46;105322;1254;73201;-61
2024/01/15 10:36:45;;;;;;;7.10;5.20;;;;;;;4.23;79.43;97844.72;105061;1255;69200;-60
2024/01/15 10:39:13;;;;;;;6.30;5.30;;;;;;;4.23;79.45;97845.58;104708;1260;72396;-62
2024/01/15 10:41:41;;;;;;;6.60;5.60;;;;;;;4.26;79.08;97844.73;105066;1254;60291;-60
2024/01/15 10:44:09;;;;;;;6.00;4.80;;;;;;;4.25;78.93;97846.02;104384;1269;60388;-60
2024/01/15 10:46:37;;;;;;;7.60;5.60;;;;;;;4.25;79.76;97839.92;104938;1262;72821;-61
2024/01/15 10:49:06;;;;;;;7.10;5.90;;;;;;;4.28;81.06;97830.79;104490;1254;69482;-60
2024/01/15 10:51:34;;;;;;;7.00;6.30;;;;;;;4.31;81.63;97827.17;104456;1257;72648;-60
2024/01/15 10:54:02;;;;;;;8.60;7.40;;;;;;;4.42;80.96;97817.80;104973;1254;60571;-63
2024/01/15 10:56:32;;;;;;;7.90;6.40;;;;;;;4.52;80.49;97808.46;104883;1254;59773;-60
2024/01/15 10:58:59;;;;;;;7.00;6.10;;;;;;;5.01;76.68;97801.59;104971;1254;75041;-60
2024/01/15 11:01:28;;;;;;;7.10;5.90;;;;;;;4.83;74.50;97797.27;104631;1261;70280;-60
2024/01/15 11:03:57;;;;;;;9.40;6.70;;;;;;;4.45;77.81;97792.34;104428;1268;72686;-60
2024/01/15 11:06:27;;;;;;;8.40;7.10;;;;;;;4.37;79.18;97789.77;104198;1264;59726;-61
2024/01/15 11:08:55;;;;;;;8.60;7.10;;;;;;;4.35;80.52;97788.48;104199;1263;59776;-61
2024/01/15 11:11:23;;;;;;;8.80;6.80;;;;;;;4.34;80.98;97792.34;104732;1260;75823;-60
2024/01/15 11:13:52;;;;;;;8.00;7.00;;;;;;;4.38;80.62;97786.75;104994;1254;69630;-61
2024/01/15 11:16:20;;;;;;;8.70;7.10;;;;;;;4.45;80.62;97782.97;105071;1253;72373;-59
2024/01/15 11:19:06;;;;;;;10.60;7.40;;;;;;;4.48;80.40;97777.97;104558;1254;60627;-60
2024/01/15 11:21:35;;;;;;;8.90;6.90;;;;;;;4.47;80.54;97781.46;104724;1251;60377;-61
2024/01/15 11:24:06;;;;;;;7.50;6.30;;;;;;;4.52;80.59;97779.19;104862;1253;73256;-61
2024/01/15 11:26:43;;;;;;;8.20;7.00;;;;;;;4.55;81.19;97773.83;105332;1252;69332;-61
2024/01/15 11:29:30;;;;;;;6.90;6.00;;;;;;;4.51;81.82;97771.04;104685;1257;72714;-61
2024/01/15 11:32:00;;;;;;;7.20;6.30;;;;;;;4.43;82.65;97765.02;104795;1255;59813;-61
2024/01/15 11:34:50;;;;;;;8.50;7.10;;;;;;;4.43;82.90;97775.95;104400;1254;59988;-63
2024/01/15 11:37:19;;;;;;;9.70;7.70;;;;;;;4.41;81.91;97795.33;104911;1268;73088;-62
2024/01/15 11:39:48;;;;;;;8.70;7.10;;;;;;;4.36;80.61;97793.83;104516;1259;69822;-61
2024/01/15 11:42:16;;;;;;;9.60;7.90;;;;;;;4.30;79.83;97789.23;104674;1253;72497;-61
2024/01/15 11:44:45;;;;;;;9.50;7.80;;;;;;;4.33;79.64;97782.52;104959;1254;61788;-61
2024/01/15 11:47:13;;;;;;;13.10;9.40;;;;;;;4.37;79.10;97778.86;104363;1258;60045;-62
2024/01/15 11:50:05;;;;;;;12.80;10.50;;;;;;;4.38;80.12;97776.70;104490;1257;72843;-61
2024/01/15 11:52:34;;;;;;;33.00;21.40;;;;;;;4.39;78.75;97780.66;104570;1260;72441;-63
2024/01/15 11:55:41;;;;;;;21.30;14.50;;;;;;;4.31;77.33;97772.86;104634;1256;73932;-59
2024/01/15 11:58:12;;;;;;;13.70;9.80;;;;;;;4.28;79.14;97774.21;104937;1261;60158;-63
2024/01/15 12:00:51;;;;;;;12.00;9.20;;;;;;;4.27;80.37;97775.82;104409;1254;59762;-63
2024/01/15 12:03:23;;;;;;;12.60;8.40;;;;;;;4.28;80.18;97768.85;104363;1257;73464;-62
2024/01/15 12:05:55;;;;;;;12.60;9.00;;;;;;;4.34;80.63;97766.48;104366;1259;70103;-61
2024/01/15 12:08:23;;;;;;;13.30;10.00;;;;;;;4.39;81.32;97767.48;104533;1261;72529;-61
2024/01/15 12:10:52;;;;;;;14.50;9.60;;;;;;;4.42;81.86;97766.31;104615;1254;60934;-62
2024/01/15 12:13:20;;;;;;;15.30;9.90;;;;;;;4.47;79.99;97770.88;104360;1260;59643;-62
2024/01/15 12:15:48;;;;;;;11.20;9.00;;;;;;;4.49;79.82;97773.59;104416;1257;73318;-62
2024/01/15 12:18:18;;;;;;;13.70;8.80;;;;;;;4.57;78.48;97772.69;104447;1260;69807;-63
2024/01/15 12:20:49;;;;;;;11.70;9.20;;;;;;;4.68;77.54;97772.33;104908;1253;73206;-62
2024/01/15 12:23:18;;;;;;;13.00;9.40;;;;;;;4.79;75.84;97775.09;104541;1260;60979;-62
2024/01/15 12:25:46;;;;;;;11.00;8.50;;;;;;;4.90;75.21;97767.60;104556;1255;60831;-62
2024/01/15 12:28:15;;;;;;;12.20;9.70;;;;;;;4.99;74.55;97766.14;104413;1256;74693;-63
2024/01/15 12:30:48;;;;;;;9.80;8.50;;;;;;;5.12;74.19;97760.59;104332;1259;69637;-65
2024/01/15 12:33:17;;;;;;;11.00;9.00;;;;;;;5.33;73.74;97753.47;104534;1257;75317;-62
2024/01/15 12:35:46;;;;;;;12.40;9.50;;;;;;;5.43;72.64;97753.27;104615;1258;60042;-63
2024/01/15 12:38:13;;;;;;;14.90;10.20;;;;;;;5.51;71.37;97757.94;104690;1258;61383;-63
2024/01/15 12:40:46;;;;;;;18.20;10.10;;;;;;;5.51;68.67;97758.27;104372;1270;74406;-62
2024/01/15 12:43:14;;;;;;;18.50;12.10;;;;;;;5.52;69.85;97752.27;104532;1255;69944;-63
2024/01/15 12:45:43;;;;;;;16.60;11.80;;;;;;;5.53;69.93;97753.45;104473;1271;72337;-61
2024/01/15 12:48:13;;;;;;;13.40;10.80;;;;;;;5.49;69.27;97754.70;104450;1257;60617;-62
2024/01/15 12:50:42;;;;;;;12.50;9.40;;;;;;;5.42;69.28;97756.42;105046;1253;62308;-65
2024/01/15 12:53:10;;;;;;;10.00;8.70;;;;;;;5.42;68.93;97756.27;104320;1258;73611;-66
2024/01/15 12:55:38;;;;;;;;;;;;;;;5.40;67.88;97763.52;104739;1256;69183;-60
2024/01/15 12:58:06;;;;;;;12.00;9.50;;;;;;;5.31;66.74;97770.23;104403;1254;73326;-61
2024/01/15 13:00:34;;;;;;;12.00;9.20;;;;;;;5.18;67.81;97776.98;104693;1258;62439;-62
2024/01/15 13:03:03;;;;;;;11.20;9.00;;;;;;;5.09;68.34;97776.04;104306;1254;60554;-62
2024/01/15 13:05:36;;;;;;;12.00;8.70;;;;;;;4.99;67.79;97773.04;104784;1255;74457;-64
2024/01/15 13:08:05;;;;;;;11.40;9.30;;;;;;;4.95;68.35;97765.99;104533;1255;70421;-64
2024/01/15 13:10:33;;;;;;;12.60;9.20;;;;;;;4.89;69.21;97764.85;104959;1253;73735;-63
2024/01/15 13:13:02;;;;;;;11.20;9.30;;;;;;;4.85;69.47;97764.73;104466;1262;60760;-63
2024/01/15 13:15:31;;;;;;;13.30;9.30;;;;;;;4.77;69.80;97761.98;105015;1253;60451;-63
2024/01/15 13:17:59;;;;;;;11.70;9.70;;;;;;;4.67;69.45;97760.23;104470;1259;72956;-62
2024/01/15 13:20:27;;;;;;;;;;;;;;;4.55;69.54;97765.50;106120;1254;69631;-63
2024/01/15 13:22:55;;;;;;;17.40;10.60;;;;;;;4.49;69.50;97767.66;104593;1253;73464;-63
2024/01/15 13:25:24;;;;;;;19.90;15.60;;;;;;;4.41;70.07;97771.02;104368;1269;60935;-63
2024/01/15 13:27:52;;;;;;;16.80;10.40;;;;;;;4.61;69.70;97767.45;105072;1255;60649;-64
2024/01/15 13:30:23;;;;;;;64.10;58.60;;;;;;;4.92;67.49;97769.98;104604;1257;73766;-62
2024/01/15 13:32:53;;;;;;;61.00;48.90;;;;;;;4.94;66.75;97767.55;105036;1261;69533;-63
2024/01/15 13:35:22;;;;;;;21.60;17.80;;;;;;;4.88;67.20;97769.45;105366;1253;74440;-63
2024/01/15 13:37:49;;;;;;;21.00;17.20;;;;;;;4.85;66.90;97766.63;104518;1257;61208;-62
2024/01/15 13:40:19;;;;;;;21.00;15.20;;;;;;;4.86;67.13;97761.02;104915;1254;62738;-63
2024/01/15 13:42:48;;;;;;;90.40;64.60;;;;;;;4.10;70.15;97757.35;104386;1259;76143;-62
2024/01/15 13:45:16;;;;;;;103.80;64.70;;;;;;;3.88;74.17;97756.30;105928;1252;70049;-62
2024/01/15 13:47:45;;;;;;;53.60;33.90;;;;;;;3.73;76.39;97750.40;104875;1254;72490;-62
2024/01/15 13:50:13;;;;;;;34.80;23.50;;;;;;;3.66;78.02;97751.06;104489;1262;60703;-62
2024/01/15 13:52:43;;;;;;;62.50;38.50;;;;;;;3.56;79.34;97745.48;104467;1270;60973;-62
2024/01/15 13:55:11;;;;;;;31.30;22.70;;;;;;;3.51;79.93;97743.56;104679;1258;72856;-62
2024/01/15 13:57:39;;;;;;;28.10;18.10;;;;;;;3.51;80.76;97738.05;104449;1262;69650;-63
2024/01/15 14:00:11;;;;;;;104.30;46.40;;;;;;;3.46;80.72;97736.21;104497;1255;72527;-62
2024/01/15 14:02:40;;;;;;;136.40;49.70;;;;;;;3.40;80.59;97736.60;105067;1257;60445;-61
2024/01/15 14:05:08;;;;;;;149.30;75.50;;;;;;;3.37;80.63;97736.62;105155;1253;60547;-63
2024/01/15 14:07:36;;;;;;;98.90;64.60;;;;;;;3.32;81.81;97737.50;104372;1258;74469;-62
2024/01/15 14:10:05;;;;;;;68.20;37.30;;;;;;;3.29;82.13;97738.66;104467;1257;73680;-61
2024/01/15 14:12:33;;;;;;;72.80;32.30;;;;;;;3.23;81.54;97735.65;104992;1254;72883;-61
2024/01/15 14:15:03;;;;;;;41.30;23.30;;;;;;;3.16;82.08;97740.42;104502;1254;60724;-62
2024/01/15 14:17:32;;;;;;;29.50;21.10;;;;;;;3.13;82.97;97739.52;104514;1257;60683;-61
2024/01/15 14:20:01;;;;;;;25.90;16.90;;;;;;;3.11;82.32;97744.46;104617;1253;73143;-62